Time;durP1;ratioP1;P1;durP2;ratioP2;P2;SDS_P1;SDS_P2;PMS_P1;PMS_P2;Temp;Humidity;BMP_temperature;BMP_pressure;BME280_temperature;BME280_humidity;BME280_pressure;Samples;Min_cycle;Max_cycle;Signal;HPM_P1;HPM_P2
2022/01/19 00:01:08;;;;;;;25.37;9.77;;;;;;;3.15;66.96;101979.97;4964237;28;96913;-92
2022/01/19 00:03:34;;;;;;;26.17;9.43;;;;;;;2.56;66.95;101877.41;4910688;28;100181;-91
2022/01/19 00:06:00;;;;;;;20.57;10.50;;;;;;;3.11;67.17;101959.09;4966097;28;100839;-93
2022/01/19 00:08:28;;;;;;;26.87;11.53;;;;;;;3.16;67.10;101947.97;4950062;28;96714;-92
2022/01/19 00:10:53;;;;;;;26.80;13.27;;;;;;;3.11;67.21;101947.03;4947258;28;96819;-92
2022/01/19 00:13:19;;;;;;;33.87;13.43;;;;;;;3.13;67.08;101940.13;4909977;28;100418;-93
2022/01/19 00:15:45;;;;;;;27.30;11.47;;;;;;;3.21;66.72;101924.72;4956907;28;98307;-92
2022/01/19 00:18:12;;;;;;;23.23;11.27;;;;;;;3.22;67.09;101942.03;4947309;28;97988;-93
2022/01/19 00:20:38;;;;;;;23.60;10.73;;;;;;;3.23;67.11;101936.03;4930594;28;96910;-92
2022/01/19 00:23:04;;;;;;;22.50;9.50;;;;;;;2.97;67.40;101895.63;4926100;28;100415;-91
2022/01/19 00:25:31;;;;;;;20.93;8.50;;;;;;;3.25;67.74;101936.91;4921458;28;101071;-92
2022/01/19 00:27:58;;;;;;;24.33;10.30;;;;;;;3.23;67.58;101925.66;4949711;28;97338;-93
2022/01/19 00:30:24;;;;;;;25.47;10.80;;;;;;;3.21;67.82;101916.94;4965862;28;97066;-92
2022/01/19 00:32:49;;;;;;;21.17;10.17;;;;;;;3.27;67.70;101917.06;4935879;28;99863;-91
2022/01/19 00:35:15;;;;;;;22.70;10.23;;;;;;;3.09;67.86;101889.00;4925015;28;100111;-93
2022/01/19 00:37:42;;;;;;;22.50;9.83;;;;;;;3.24;67.89;101910.94;4937592;28;97151;-90
2022/01/19 00:40:10;;;;;;;21.90;9.40;;;;;;;2.80;68.00;101838.22;4921971;28;96951;-92
2022/01/19 00:42:35;;;;;;;22.33;9.60;;;;;;;3.30;67.73;101917.13;4926668;28;100285;-92
2022/01/19 00:45:02;;;;;;;17.80;8.93;;;;;;;3.28;68.01;101920.53;4934746;28;100164;-92
2022/01/19 00:47:28;;;;;;;25.27;9.20;;;;;;;3.24;68.51;101918.72;4937143;28;96822;-93
2022/01/19 00:49:54;;;;;;;19.13;9.23;;;;;;;3.10;68.12;101895.06;4921262;28;96774;-92
2022/01/19 00:52:20;;;;;;;18.73;8.30;;;;;;;3.29;68.37;101935.28;4921096;28;100896;-92
2022/01/19 00:54:46;;;;;;;18.83;7.80;;;;;;;3.18;68.46;101916.88;4950224;28;99954;-92
2022/01/19 00:57:12;;;;;;;21.63;9.17;;;;;;;3.19;68.45;101910.84;4947735;28;97629;-91
2022/01/19 00:59:37;;;;;;;17.47;8.37;;;;;;;3.31;68.66;101928.38;4969374;28;97031;-92
2022/01/19 01:02:04;;;;;;;19.17;8.53;;;;;;;3.28;68.49;101913.63;4944659;28;98327;-92
2022/01/19 01:04:29;;;;;;;16.47;8.67;;;;;;;3.34;68.48;101913.75;4948880;28;101384;-92
2022/01/19 01:06:55;;;;;;;18.17;8.13;;;;;;;3.33;68.23;101916.34;4920795;28;96679;-91
2022/01/19 01:09:21;;;;;;;18.50;8.83;;;;;;;3.28;68.57;101908.44;4953147;28;96895;-92
2022/01/19 01:11:58;;;;;;;19.23;8.43;;;;;;;3.10;69.00;101889.88;4932955;28;100441;-93
2022/01/19 01:20:00;;;;;;;22.20;8.77;;;;;;;3.02;69.03;101844.72;4929192;28;97211;-92
2022/01/19 01:22:27;;;;;;;16.67;8.00;;;;;;;3.31;68.79;101886.84;4956752;28;101404;-92
2022/01/19 01:24:52;;;;;;;14.90;8.40;;;;;;;3.31;69.01;101876.47;4941108;28;101253;-92
2022/01/19 01:27:18;;;;;;;19.27;8.77;;;;;;;3.27;68.90;101861.69;4924012;28;96891;-94
2022/01/19 01:29:44;;;;;;;15.07;8.33;;;;;;;3.34;69.20;101863.56;4935967;28;97241;-92
2022/01/19 01:32:10;;;;;;;18.17;8.37;;;;;;;3.44;68.67;101862.91;4938977;28;101346;-93
2022/01/19 01:34:36;;;;;;;19.27;9.90;;;;;;;3.47;68.88;101859.50;4952921;28;101472;-92
2022/01/19 01:37:02;;;;;;;18.40;8.80;;;;;;;3.25;68.85;101825.31;4968987;28;96699;-93
2022/01/19 01:39:28;;;;;;;21.33;10.63;;;;;;;3.30;68.62;101825.41;4962269;28;96920;-93
2022/01/19 01:41:55;;;;;;;17.27;10.50;;;;;;;3.32;68.73;101831.53;4942092;28;101645;-93
2022/01/19 01:44:25;;;;;;;17.90;10.03;;;;;;;3.34;69.24;101828.09;4953420;28;101165;-91
2022/01/19 01:46:56;;;;;;;19.87;10.27;;;;;;;3.37;69.38;101827.28;4948182;28;97362;-92
2022/01/19 01:49:29;;;;;;;18.48;9.23;;;;;;;3.13;68.97;101768.00;4966451;28;98273;-92
2022/01/19 01:54:41;;;;;;;20.57;9.80;;;;;;;3.45;69.11;101793.69;4941810;28;99687;-92
2022/01/19 01:57:08;;;;;;;17.50;8.80;;;;;;;3.50;69.04;101800.72;4939737;28;97524;-91
2022/01/19 01:59:35;;;;;;;18.03;10.07;;;;;;;3.30;69.24;101774.38;4923289;28;97216;-92
2022/01/19 02:02:14;;;;;;;21.00;10.60;;;;;;;3.34;68.97;101770.09;4948250;28;98527;-91
2022/01/19 02:04:41;;;;;;;18.00;7.93;;;;;;;3.31;68.92;101760.53;4933510;28;101457;-92
2022/01/19 02:10:05;;;;;;;22.93;9.97;;;;;;;3.39;68.93;101794.44;4945563;28;96885;-93
2022/01/19 02:23:39;;;;;;;30.27;13.67;;;;;;;3.35;68.41;101784.84;4960729;28;99879;-93
2022/01/19 02:26:12;;;;;;;20.33;9.40;;;;;;;3.34;68.04;101776.16;4939421;28;102354;-92
2022/01/19 02:36:35;;;;;;;26.00;12.27;;;;;;;3.33;67.87;101773.56;4946536;28;96748;-91
2022/01/19 02:42:26;;;;;;;24.10;11.53;;;;;;;3.39;67.15;101746.00;4922508;28;96854;-92
2022/01/19 02:49:48;;;;;;;37.27;13.10;;;;;;;3.40;67.18;101728.69;4925166;28;97674;-91
2022/01/19 02:52:14;;;;;;;31.73;13.47;;;;;;;3.42;67.05;101736.50;4922377;28;96974;-92
2022/01/19 02:54:40;;;;;;;32.77;12.47;;;;;;;3.34;66.93;101711.28;4938293;28;100142;-92
2022/01/19 02:57:09;;;;;;;34.37;13.33;;;;;;;3.39;67.13;101726.94;4952080;28;99924;-91
2022/01/19 03:06:13;;;;;;;38.83;14.60;;;;;;;3.39;67.51;101721.75;4918445;28;96785;-92
2022/01/19 03:10:42;;;;;;;23.27;9.60;;;;;;;3.44;67.07;101690.69;4945222;28;97261;-92
2022/01/19 03:13:07;;;;;;;28.17;10.70;;;;;;;3.48;66.81;101685.56;4950000;28;97089;-92
2022/01/19 03:15:33;;;;;;;24.43;10.53;;;;;;;3.55;66.88;101681.34;4960592;28;101564;-92
2022/01/19 03:18:00;;;;;;;23.07;9.20;;;;;;;3.54;67.08;101674.41;4945839;28;101347;-93
2022/01/19 03:20:27;;;;;;;20.87;7.73;;;;;;;3.58;66.56;101681.41;4937098;28;97252;-92
2022/01/19 03:23:08;;;;;;;16.87;7.23;;;;;;;3.50;66.60;101665.69;4965569;28;97059;-93
2022/01/19 03:25:37;;;;;;;20.77;9.90;;;;;;;3.50;66.99;101665.69;4951350;28;100530;-91
2022/01/19 03:28:04;;;;;;;18.70;8.87;;;;;;;3.49;67.21;101663.06;4942952;28;101518;-92
2022/01/19 03:30:31;;;;;;;13.37;6.87;;;;;;;3.37;67.51;101664.63;4954452;28;96796;-92
2022/01/19 03:32:56;;;;;;;17.57;8.20;;;;;;;3.43;66.99;101647.38;4967359;28;96961;-92
2022/01/19 03:35:22;;;;;;;17.63;7.37;;;;;;;3.41;67.64;101644.78;4968511;28;100880;-92
2022/01/19 03:37:47;;;;;;;12.20;7.10;;;;;;;3.28;67.24;101607.34;4946736;28;100940;-92
2022/01/19 03:40:13;;;;;;;14.50;6.97;;;;;;;3.54;67.40;101648.44;4934115;28;96965;-92
2022/01/19 03:42:40;;;;;;;15.90;7.33;;;;;;;3.53;67.25;101632.00;4928024;28;96915;-92
2022/01/19 03:45:07;;;;;;;23.30;11.23;;;;;;;3.59;67.31;101633.81;4953863;28;101370;-92
2022/01/19 03:47:39;;;;;;;35.00;16.23;;;;;;;3.60;67.13;101641.63;4938129;28;100006;-93
2022/01/19 03:50:06;;;;;;;19.93;9.40;;;;;;;3.60;67.37;101626.03;4918550;28;97916;-92
2022/01/19 03:52:32;;;;;;;49.53;19.77;;;;;;;3.61;67.20;101630.41;4953979;28;96910;-93
2022/01/19 03:55:03;;;;;;;43.33;18.97;;;;;;;3.53;67.11;101605.16;4937587;28;101589;-92
2022/01/19 03:57:29;;;;;;;27.13;10.53;;;;;;;3.13;67.07;101529.25;4922399;28;100294;-92
2022/01/19 03:59:55;;;;;;;25.10;11.03;;;;;;;3.57;67.11;101601.75;4938046;28;96667;-93
2022/01/19 04:02:20;;;;;;;43.23;14.53;;;;;;;3.56;67.31;101595.69;4942393;28;96813;-92
2022/01/19 04:05:02;;;;;;;22.40;10.73;;;;;;;3.69;66.92;101611.44;4933907;28;101060;-90
2022/01/19 04:07:28;;;;;;;;;;;;;;;3.63;67.07;101612.22;4935659;28;101249;-92
2022/01/19 04:09:54;;;;;;;21.40;9.90;;;;;;;3.48;66.76;101583.44;4949806;28;96835;-92
2022/01/19 04:12:35;;;;;;;21.07;9.83;;;;;;;3.60;66.73;101602.66;4947592;28;97159;-92
2022/01/19 04:15:01;;;;;;;22.88;11.10;;;;;;;3.48;66.77;101584.31;4916103;28;101446;-91
2022/01/19 04:17:27;;;;;;;23.93;11.50;;;;;;;3.54;66.36;101599.97;4937287;28;101506;-93
2022/01/19 04:19:52;;;;;;;19.67;7.80;;;;;;;3.42;66.77;101570.38;4953620;28;96964;-91
2022/01/19 04:22:21;;;;;;;15.03;8.03;;;;;;;3.37;66.49;101570.28;4935617;28;97188;-92
2022/01/19 04:24:49;;;;;;;15.90;8.63;;;;;;;3.61;66.40;101601.84;4936311;28;101283;-92
2022/01/19 04:30:11;;;;;;;15.87;8.03;;;;;;;3.65;65.93;101607.06;4954095;28;96887;-92
2022/01/19 04:33:02;;;;;;;19.07;8.90;;;;;;;3.54;66.15;101588.72;4928603;28;97028;-92
2022/01/19 04:35:43;;;;;;;16.33;8.50;;;;;;;3.49;66.06;101572.19;4932620;28;101471;-92
2022/01/19 04:44:08;;;;;;;15.10;7.50;;;;;;;3.43;66.11;101561.72;4969940;28;96897;-91
2022/01/19 04:54:15;;;;;;;18.17;8.73;;;;;;;3.62;65.76;101580.19;4953608;28;101306;-91
2022/01/19 05:01:32;;;;;;;20.03;9.10;;;;;;;3.60;66.00;101575.81;4958120;28;97958;-92
2022/01/19 05:06:06;;;;;;;;;;;;;;;3.56;65.67;101554.13;4957778;28;97055;-94
2022/01/19 05:13:56;;;;;;;13.07;7.60;;;;;;;3.59;65.08;101548.13;4959483;28;97121;-92
2022/01/19 05:16:27;;;;;;;15.97;7.50;;;;;;;3.62;65.23;101549.03;4944982;28;96772;-92
2022/01/19 05:18:54;;;;;;;11.13;6.83;;;;;;;3.59;65.55;101548.13;4929890;28;101812;-93
2022/01/19 05:21:20;;;;;;;14.07;8.17;;;;;;;3.59;65.64;101545.53;4935916;28;100301;-92
2022/01/19 05:24:07;;;;;;;14.77;8.03;;;;;;;3.59;65.66;101542.94;4964344;28;96706;-92
2022/01/19 05:26:36;;;;;;;17.63;8.33;;;;;;;3.36;65.67;101490.69;4916103;28;96935;-92
2022/01/19 05:29:02;;;;;;;11.80;7.33;;;;;;;3.56;66.10;101533.38;4966605;28;101379;-93
2022/01/19 05:31:28;;;;;;;16.03;8.40;;;;;;;3.60;65.81;101521.28;4936473;28;100459;-90
2022/01/19 05:33:54;;;;;;;15.43;8.63;;;;;;;3.65;66.04;101513.59;4956039;28;96995;-91
2022/01/19 05:36:20;;;;;;;14.27;8.07;;;;;;;3.33;65.45;101460.34;4966667;28;97484;-91
2022/01/19 05:39:06;;;;;;;12.43;8.03;;;;;;;3.45;65.51;101480.41;4935922;28;99127;-93
2022/01/19 05:41:58;;;;;;;13.65;8.50;;;;;;;3.53;65.22;101488.31;4935043;28;97640;-93
2022/01/19 05:44:24;;;;;;;17.33;8.97;;;;;;;3.62;65.62;101502.28;4928729;28;96660;-93
2022/01/19 05:46:49;;;;;;;14.63;8.70;;;;;;;3.67;65.55;101498.91;4956949;28;98275;-92
2022/01/19 05:49:15;;;;;;;12.67;8.03;;;;;;;3.66;65.71;101497.13;4922740;28;100053;-92
2022/01/19 05:51:41;;;;;;;18.37;9.53;;;;;;;3.43;65.52;101450.09;4955962;28;100051;-91
2022/01/19 05:54:07;;;;;;;14.57;8.07;;;;;;;3.61;65.79;101481.50;4936299;28;96788;-91
2022/01/19 05:56:33;;;;;;;16.93;9.10;;;;;;;3.55;65.97;101481.41;4937096;28;97087;-92
2022/01/19 05:59:16;;;;;;;16.63;9.13;;;;;;;3.61;65.95;101476.31;4949434;28;97175;-92
2022/01/19 06:01:42;;;;;;;14.27;9.27;;;;;;;3.61;66.06;101484.09;4948614;28;101430;-92
2022/01/19 06:04:09;;;;;;;12.53;8.03;;;;;;;3.58;65.88;101461.56;4967335;28;98023;-93
2022/01/19 06:07:03;;;;;;;13.52;8.75;;;;;;;3.65;65.93;101474.63;4942071;28;97284;-95
2022/01/19 06:10:05;;;;;;;18.00;9.47;;;;;;;3.68;65.94;101472.94;4939787;28;98813;-94
2022/01/19 06:12:40;;;;;;;16.20;9.53;;;;;;;3.69;65.87;101466.00;4939156;28;101596;-91
2022/01/19 06:15:07;;;;;;;19.07;10.87;;;;;;;3.69;65.94;101473.81;4921255;28;96791;-87
2022/01/19 06:17:33;;;;;;;17.83;10.13;;;;;;;3.45;65.78;101420.72;4921520;28;97299;-91
2022/01/19 06:20:01;;;;;;;15.63;9.37;;;;;;;3.69;65.56;101450.44;4939203;28;102256;-92
2022/01/19 06:22:27;;;;;;;17.33;9.63;;;;;;;3.22;65.83;101380.63;4923715;28;100388;-95
2022/01/19 06:24:53;;;;;;;14.20;9.63;;;;;;;3.59;66.21;101457.25;4968541;28;97373;-94
2022/01/19 06:27:20;;;;;;;15.27;9.40;;;;;;;3.43;65.92;101414.63;4922795;28;97257;-93
2022/01/19 06:29:46;;;;;;;16.13;9.63;;;;;;;3.48;65.92;101417.28;4922047;28;100375;-96
2022/01/19 06:32:12;;;;;;;17.43;10.00;;;;;;;3.59;65.60;101413.09;4922314;28;97973;-93
2022/01/19 06:34:38;;;;;;;15.63;9.90;;;;;;;3.62;65.81;101447.75;4908696;28;98031;-90
2022/01/19 06:37:22;;;;;;;15.53;10.47;;;;;;;3.61;66.21;101430.44;4932771;28;97203;-86
2022/01/19 06:39:54;;;;;;;17.07;11.00;;;;;;;3.59;65.79;101426.94;4938628;28;97613;-90
2022/01/19 06:42:21;;;;;;;14.20;9.67;;;;;;;3.65;66.15;101435.69;4935529;28;101155;-91
2022/01/19 06:44:47;;;;;;;16.77;10.70;;;;;;;3.72;65.43;101421.91;4939812;28;97241;-91
2022/01/19 06:47:12;;;;;;;17.00;10.30;;;;;;;3.63;65.54;101428.72;4938918;28;97215;-90
2022/01/19 06:49:38;;;;;;;24.90;12.93;;;;;;;3.43;65.58;101380.00;4922420;28;100218;-91
2022/01/19 06:52:06;;;;;;;52.27;21.63;;;;;;;3.50;65.32;101394.81;4922902;28;101710;-92
2022/01/19 06:54:33;;;;;;;41.07;16.27;;;;;;;3.61;65.29;101411.41;4952764;28;96788;-91
2022/01/19 06:56:59;;;;;;;42.37;18.33;;;;;;;3.68;65.20;101425.31;4934023;28;96856;-91
2022/01/19 06:59:28;;;;;;;50.93;23.27;;;;;;;3.42;65.30;101397.31;4962354;28;101331;-92
2022/01/19 07:02:23;;;;;;;28.30;14.63;;;;;;;3.62;64.88;101413.13;4938862;28;99391;-91
2022/01/19 07:04:55;;;;;;;26.13;12.90;;;;;;;3.54;64.74;101409.56;4949487;28;97067;-92
2022/01/19 07:07:30;;;;;;;42.07;18.33;;;;;;;3.52;65.32;101412.16;4947686;28;97308;-93
2022/01/19 07:09:58;;;;;;;42.47;16.17;;;;;;;3.57;64.89;101417.41;4944734;28;101542;-91
2022/01/19 07:12:26;;;;;;;53.07;19.60;;;;;;;3.63;64.81;101413.13;4938908;28;100973;-91
2022/01/19 07:14:52;;;;;;;36.33;15.53;;;;;;;3.46;65.15;101400.81;4939670;28;97282;-91
2022/01/19 07:17:18;;;;;;;53.40;20.33;;;;;;;3.04;65.19;101334.56;4925696;28;96900;-91
2022/01/19 07:19:44;;;;;;;24.73;11.87;;;;;;;3.29;64.95;101367.75;4945109;28;101408;-90
2022/01/19 07:22:11;;;;;;;13.23;9.27;;;;;;;3.62;64.69;101408.81;4938828;28;100659;-91
2022/01/19 07:24:36;;;;;;;14.83;9.67;;;;;;;3.44;64.61;101355.81;4923151;28;96904;-91
2022/01/19 07:27:03;;;;;;;15.30;9.00;;;;;;;3.58;64.86;101399.25;4928900;28;97289;-91
2022/01/19 07:29:30;;;;;;;15.17;8.37;;;;;;;3.30;64.58;101350.44;4946808;28;100348;-90
2022/01/19 07:31:58;;;;;;;15.20;9.00;;;;;;;3.66;64.23;101375.94;4948668;28;101473;-92
2022/01/19 07:34:25;;;;;;;14.60;9.30;;;;;;;3.61;64.14;101370.72;4933281;28;96823;-91
2022/01/19 07:36:53;;;;;;;18.33;8.93;;;;;;;3.66;63.71;101377.69;4914255;28;98351;-90
2022/01/19 07:39:19;;;;;;;14.77;8.57;;;;;;;3.82;64.15;101369.22;4932333;28;100169;-89
2022/01/19 07:41:45;;;;;;;14.30;9.00;;;;;;;3.82;63.46;101370.06;4963499;28;99604;-86
2022/01/19 07:44:29;;;;;;;22.30;9.67;;;;;;;3.92;63.58;101373.63;4938701;28;97255;-92
2022/01/19 07:47:13;;;;;;;15.83;9.23;;;;;;;4.03;63.51;101377.19;4958197;28;97469;-88
2022/01/19 07:49:59;;;;;;;20.70;9.47;;;;;;;4.17;62.75;101376.47;4949121;28;99573;-90
2022/01/19 07:52:43;;;;;;;37.57;16.87;;;;;;;4.23;63.02;101372.19;4950241;28;97078;-90
2022/01/19 07:55:32;;;;;;;29.70;14.43;;;;;;;4.22;63.29;101369.59;4932318;28;97402;-89
2022/01/19 07:58:11;;;;;;;34.30;14.63;;;;;;;4.16;63.19;101347.03;4953144;28;97135;-90
2022/01/19 08:00:46;;;;;;;25.83;13.23;;;;;;;4.39;62.93;101354.97;4950842;28;101637;-91
2022/01/19 08:03:40;;;;;;;29.90;13.60;;;;;;;4.59;62.50;101349.94;4951560;28;99162;-90
2022/01/19 08:06:13;;;;;;;24.57;12.03;;;;;;;4.75;61.95;101353.53;4946678;28;96823;-90
2022/01/19 08:08:39;;;;;;;30.77;14.07;;;;;;;4.79;61.93;101339.66;4927097;28;97304;-91
2022/01/19 08:11:06;;;;;;;25.47;13.50;;;;;;;4.92;61.87;101341.47;4952613;28;99123;-90
2022/01/19 08:13:39;;;;;;;28.63;14.67;;;;;;;5.13;60.77;101335.50;4944295;28;100409;-89
2022/01/19 08:16:05;;;;;;;31.47;12.87;;;;;;;5.20;60.02;101344.19;4920093;28;96817;-87
2022/01/19 08:18:31;;;;;;;32.20;14.83;;;;;;;5.27;60.26;101345.13;4955145;28;97446;-90
2022/01/19 08:20:56;;;;;;;26.87;13.30;;;;;;;5.23;60.25;101336.41;4966657;28;101826;-88
2022/01/19 08:23:27;;;;;;;29.57;14.47;;;;;;;5.27;60.16;101329.50;4952747;28;101822;-85
2022/01/19 08:25:57;;;;;;;22.47;11.33;;;;;;;5.34;59.08;101302.59;4954780;28;97630;-88
2022/01/19 08:28:23;;;;;;;25.13;11.93;;;;;;;5.82;58.44;101340.94;4942371;28;97346;-87
2022/01/19 08:30:48;;;;;;;24.33;12.70;;;;;;;5.88;58.14;101334.84;4932880;28;101417;-87
2022/01/19 08:33:30;;;;;;;29.70;13.82;;;;;;;5.75;57.78;101336.56;4946617;28;101739;-88
2022/01/19 08:36:01;;;;;;;26.00;13.20;;;;;;;5.96;57.40;101321.84;4963628;28;96680;-91
2022/01/19 08:39:01;;;;;;;24.83;12.60;;;;;;;5.55;57.64;101281.81;4924658;28;97726;-85
2022/01/19 08:41:31;;;;;;;33.87;16.77;;;;;;;5.76;57.44;101283.59;4932887;28;101742;-87
2022/01/19 08:43:59;;;;;;;26.50;13.43;;;;;;;6.31;57.55;101308.81;4935479;28;101446;-87
2022/01/19 08:46:24;;;;;;;21.70;11.03;;;;;;;6.46;57.03;101292.31;4955301;28;96800;-84
2022/01/19 08:49:22;;;;;;;31.07;14.80;;;;;;;6.84;56.49;101299.16;4951677;28;98681;-91
2022/01/19 08:52:08;;;;;;;22.87;11.93;;;;;;;7.07;56.08;101291.22;4928399;28;97812;-89
2022/01/19 08:54:44;;;;;;;30.87;14.43;;;;;;;7.32;55.19;101289.38;4967166;28;101985;-89
2022/01/19 08:57:11;;;;;;;27.60;13.10;;;;;;;7.19;54.21;101263.34;4925854;28;97373;-88
2022/01/19 08:59:36;;;;;;;36.20;14.87;;;;;;;7.23;54.96;101283.31;4943809;28;96862;-86
2022/01/19 09:02:03;;;;;;;24.33;12.23;;;;;;;7.22;54.43;101242.44;4962449;28;98563;-88
2022/01/19 09:04:28;;;;;;;79.13;28.77;;;;;;;7.38;53.83;101276.28;4926973;28;100639;-89
2022/01/19 09:06:55;;;;;;;75.70;29.17;;;;;;;7.11;54.67;101283.38;4931957;28;97298;-88
2022/01/19 09:09:21;;;;;;;58.10;22.63;;;;;;;7.06;54.81;101258.16;4938391;28;97694;-88
2022/01/19 09:11:46;;;;;;;64.00;26.43;;;;;;;7.22;55.05;101279.00;4938565;28;100870;-88
2022/01/19 09:14:12;;;;;;;76.70;30.33;;;;;;;7.14;55.09;101265.09;4966664;28;101412;-88
2022/01/19 09:16:38;;;;;;;65.30;27.80;;;;;;;7.11;54.50;101243.34;4962464;28;97127;-88
2022/01/19 09:19:06;;;;;;;32.57;15.53;;;;;;;7.13;54.43;101267.72;4922385;28;97967;-88
2022/01/19 09:21:31;;;;;;;44.27;21.60;;;;;;;7.10;54.47;101257.28;4943168;28;99025;-88
2022/01/19 09:23:57;;;;;;;55.17;25.93;;;;;;;7.09;54.78;101259.03;4936592;28;101226;-88
2022/01/19 09:26:23;;;;;;;35.00;18.17;;;;;;;6.97;54.75;101233.84;4921235;28;97251;-88
2022/01/19 09:28:48;;;;;;;28.03;13.77;;;;;;;6.93;55.06;101221.69;4942256;28;96800;-87
2022/01/19 09:31:17;;;;;;;25.83;14.97;;;;;;;7.29;54.30;101248.47;4951977;28;101126;-89
2022/01/19 09:33:44;;;;;;;25.77;14.13;;;;;;;7.05;54.42;101231.22;4946690;28;101710;-88
2022/01/19 09:38:54;;;;;;;22.93;12.80;;;;;;;7.72;53.90;101243.84;4944365;28;96730;-88
2022/01/19 09:41:19;;;;;;;25.13;11.07;;;;;;;8.01;53.05;101220.94;4955210;28;101148;-88
2022/01/19 09:43:45;;;;;;;20.85;9.93;;;;;;;8.58;52.28;101230.00;4939073;28;100173;-87
2022/01/19 09:46:11;;;;;;;15.93;9.43;;;;;;;8.84;50.56;101221.81;4938873;28;96791;-88
2022/01/19 09:48:36;;;;;;;16.73;8.52;;;;;;;8.66;51.12;101224.63;4938683;28;96771;-87
2022/01/19 09:51:02;;;;;;;18.57;9.03;;;;;;;8.61;50.57;101219.47;4938013;28;98304;-89
2022/01/19 09:53:28;;;;;;;15.25;8.77;;;;;;;8.44;51.81;101213.56;4953793;28;101579;-90
2022/01/19 09:55:53;;;;;;;16.48;8.55;;;;;;;8.57;50.63;101180.25;4939207;28;96669;-87
2022/01/19 09:58:21;;;;;;;17.13;9.13;;;;;;;8.74;50.56;101187.91;4954277;28;97283;-88
2022/01/19 10:00:47;;;;;;;16.17;8.30;;;;;;;9.02;50.61;101206.75;4936596;28;101799;-86
2022/01/19 10:03:19;;;;;;;19.30;8.77;;;;;;;8.87;49.66;101149.34;4926885;28;101080;-86
2022/01/19 10:06:03;;;;;;;21.92;8.02;;;;;;;8.88;50.79;101187.75;4958877;28;97312;-87
2022/01/19 10:08:37;;;;;;;18.20;8.20;;;;;;;9.30;49.17;101181.88;4967426;28;96873;-88
2022/01/19 10:11:20;;;;;;;20.65;9.23;;;;;;;9.28;49.82;101167.94;4938445;28;98385;-88
2022/01/19 10:17:01;;;;;;;24.90;11.85;;;;;;;9.27;49.42;101137.38;4956368;28;96714;-84
2022/01/19 10:19:34;;;;;;;17.02;8.98;;;;;;;9.00;49.20;101153.53;4973218;28;98482;-85
2022/01/19 10:22:07;;;;;;;26.95;12.43;;;;;;;9.09;50.16;101157.75;4966971;28;101657;-85
2022/01/19 10:24:41;;;;;;;18.30;8.73;;;;;;;9.27;49.23;101141.75;4942573;28;98509;-87
2022/01/19 10:27:20;;;;;;;13.80;8.10;;;;;;;9.31;49.03;101140.84;4949337;28;96840;-87
2022/01/19 10:29:47;;;;;;;13.80;8.85;;;;;;;8.78;50.17;101145.09;4941668;28;96897;-87
2022/01/19 10:32:13;;;;;;;15.45;7.43;;;;;;;8.70;50.53;101144.34;4968471;28;101307;-89
2022/01/19 10:34:39;;;;;;;17.73;7.95;;;;;;;8.74;50.83;101144.28;4938696;28;101183;-88
2022/01/19 10:37:05;;;;;;;18.50;9.80;;;;;;;8.58;50.71;101132.25;4935110;28;97477;-89
2022/01/19 10:39:43;;;;;;;13.30;8.23;;;;;;;8.35;51.38;101125.56;4949018;28;97363;-89
2022/01/19 10:42:20;;;;;;;14.20;8.43;;;;;;;8.24;51.76;101122.19;4943824;28;101626;-90
2022/01/19 10:44:49;;;;;;;19.90;9.05;;;;;;;8.19;52.06;101110.91;4961104;28;100279;-90
2022/01/19 10:47:17;;;;;;;14.38;7.53;;;;;;;8.01;52.13;101100.66;4939254;28;97170;-88
2022/01/19 10:49:55;;;;;;;21.67;8.82;;;;;;;7.95;52.76;101104.22;4936203;28;96945;-88
2022/01/19 10:52:31;;;;;;;18.20;8.23;;;;;;;7.65;52.74;101085.38;4921540;28;101314;-89
2022/01/19 10:55:00;;;;;;;15.37;8.73;;;;;;;7.34;54.00;101063.00;4958760;28;98329;-89
2022/01/19 10:57:28;;;;;;;12.27;7.90;;;;;;;7.26;54.29;101082.22;4921460;28;96932;-89
2022/01/19 11:00:19;;;;;;;17.00;8.40;;;;;;;7.05;54.79;101069.34;4934414;28;96784;-89
2022/01/19 11:02:46;;;;;;;14.20;8.47;;;;;;;6.89;55.45;101055.50;4954171;28;101491;-89
2022/01/19 11:05:11;;;;;;;14.73;6.87;;;;;;;6.88;55.56;101047.72;4922408;28;101269;-89
2022/01/19 11:07:37;;;;;;;13.70;7.07;;;;;;;6.87;55.45;101048.59;4937349;28;97346;-89
2022/01/19 11:10:18;;;;;;;14.70;8.77;;;;;;;6.82;56.06;101047.75;4951227;28;97071;-89
2022/01/19 11:12:46;;;;;;;20.67;9.10;;;;;;;6.63;55.79;100997.44;4937121;28;100635;-87
2022/01/19 11:15:13;;;;;;;13.67;7.40;;;;;;;6.94;55.58;101000.69;4945648;28;101495;-90
2022/01/19 11:17:39;;;;;;;14.37;7.47;;;;;;;6.81;55.70;101007.75;4958615;28;97046;-88
2022/01/19 11:20:08;;;;;;;15.13;8.67;;;;;;;6.78;55.41;101006.03;4941640;28;96845;-88
2022/01/19 11:22:49;;;;;;;14.53;8.63;;;;;;;6.56;56.20;101010.53;4940054;28;101063;-89
2022/01/19 11:25:23;;;;;;;15.00;9.47;;;;;;;6.27;56.83;100995.06;4968915;28;101229;-91
2022/01/19 11:27:50;;;;;;;13.20;8.40;;;;;;;6.20;57.25;100982.06;4940157;28;96940;-89
2022/01/19 11:30:20;;;;;;;16.63;9.10;;;;;;;6.19;57.56;100990.75;4960967;28;97377;-91
2022/01/19 11:33:16;;;;;;;15.03;8.23;;;;;;;6.08;58.11;100980.41;4947477;28;101127;-89
2022/01/19 11:35:44;;;;;;;20.43;9.07;;;;;;;6.25;57.78;100980.28;4951999;28;101291;-91
2022/01/19 11:38:33;;;;;;;16.03;8.73;;;;;;;6.43;57.06;100989.72;4938489;28;96786;-90
2022/01/19 11:41:07;;;;;;;16.80;9.63;;;;;;;6.22;57.92;100982.91;4948215;28;96759;-91
2022/01/19 11:43:33;;;;;;;17.43;11.23;;;;;;;6.34;57.22;100973.28;4969202;28;97704;-90
2022/01/19 11:46:00;;;;;;;21.70;9.87;;;;;;;6.16;57.98;100962.09;4959340;28;97952;-87
2022/01/19 11:48:29;;;;;;;17.40;9.77;;;;;;;5.73;58.25;100921.47;4933227;28;97133;-86
2022/01/19 11:51:20;;;;;;;14.13;8.97;;;;;;;5.90;58.88;100945.72;4963077;28;97484;-86
2022/01/19 11:53:59;;;;;;;19.20;9.73;;;;;;;5.62;58.74;100905.03;4960563;28;97953;-85
2022/01/19 11:56:25;;;;;;;18.37;9.60;;;;;;;5.85;58.53;100942.25;4936923;28;101389;-86
2022/01/19 11:59:16;;;;;;;15.03;9.37;;;;;;;5.77;59.20;100936.19;4942098;28;97483;-87
2022/01/19 12:01:42;;;;;;;16.02;9.15;;;;;;;5.85;59.51;100928.38;4930816;28;97500;-87
2022/01/19 12:04:20;;;;;;;17.93;10.00;;;;;;;5.68;59.60;100902.38;4946050;28;98171;-86
2022/01/19 12:06:47;;;;;;;15.53;9.30;;;;;;;5.64;60.05;100913.66;4959078;28;100985;-86
2022/01/19 12:09:14;;;;;;;19.07;9.93;;;;;;;5.82;59.08;100912.75;4953909;28;96883;-86
2022/01/19 12:11:49;;;;;;;16.63;9.43;;;;;;;5.73;59.21;100871.97;4950835;28;97016;-86
2022/01/19 12:19:38;;;;;;;15.57;9.83;;;;;;;5.85;59.46;100863.22;4964383;28;97281;-86
2022/01/19 12:22:12;;;;;;;20.07;9.60;;;;;;;5.95;59.74;100859.69;4943756;28;101086;-86
2022/01/19 12:24:39;;;;;;;22.33;10.27;;;;;;;5.83;59.86;100854.53;4947624;28;97603;-86
2022/01/19 12:27:09;;;;;;;16.63;9.23;;;;;;;5.72;60.45;100851.97;4938659;28;101486;-82
2022/01/19 12:29:36;;;;;;;14.87;9.50;;;;;;;5.76;60.34;100851.13;4955817;28;100584;-83
2022/01/19 12:32:05;;;;;;;22.90;13.27;;;;;;;5.59;60.03;100834.72;4941252;28;96895;-82
2022/01/19 12:34:53;;;;;;;37.03;18.20;;;;;;;5.73;60.90;100839.81;4983556;28;97964;-82
2022/01/19 12:37:34;;;;;;;16.30;9.50;;;;;;;5.63;60.77;100837.28;4965738;28;98496;-82
2022/01/19 12:40:26;;;;;;;39.50;19.60;;;;;;;5.85;60.81;100829.34;4982481;28;97692;-83
2022/01/19 12:42:56;;;;;;;20.00;10.05;;;;;;;5.71;61.22;100823.34;4932142;28;97880;-83
2022/01/19 12:45:26;;;;;;;16.87;8.63;;;;;;;5.79;60.86;100829.34;4948353;28;97902;-83
2022/01/19 12:48:03;;;;;;;37.57;17.87;;;;;;;5.88;61.13;100832.78;4969894;28;97939;-83
2022/01/19 12:50:29;;;;;;;34.93;17.47;;;;;;;5.93;61.22;100826.66;4959968;28;96757;-83
2022/01/19 12:53:06;;;;;;;18.03;11.10;;;;;;;6.03;60.99;100817.97;4960436;28;97212;-82
2022/01/19 12:55:36;;;;;;;39.23;21.03;;;;;;;5.96;60.75;100806.69;4958739;28;97936;-83
2022/01/19 12:58:10;;;;;;;24.33;15.47;;;;;;;5.89;60.53;100787.59;4973786;28;98352;-82
2022/01/19 13:00:35;;;;;;;26.57;12.90;;;;;;;5.92;61.15;100810.19;4936885;28;96737;-83